sensor_id;sensor_type;location;lat;lon;timestamp;P1;durP1;ratioP1;P2;durP2;ratioP2
78718;SDS011;68046;53.334;9.538;2024-01-11T00:01:50;33.42;;;14.43;;
78718;SDS011;68046;53.334;9.538;2024-01-11T00:04:15;36.70;;;18.92;;
78718;SDS011;68046;53.334;9.538;2024-01-11T00:06:41;32.83;;;15.30;;
78718;SDS011;68046;53.334;9.538;2024-01-11T00:09:07;30.63;;;13.30;;
78718;SDS011;68046;53.334;9.538;2024-01-11T00:11:33;41.45;;;17.15;;
78718;SDS011;68046;53.334;9.538;2024-01-11T00:14:00;26.73;;;13.05;;
78718;SDS011;68046;53.334;9.538;2024-01-11T00:16:25;25.67;;;13.82;;
78718;SDS011;68046;53.334;9.538;2024-01-11T00:18:51;34.40;;;14.52;;
78718;SDS011;68046;53.334;9.538;2024-01-11T00:21:16;33.47;;;14.88;;
78718;SDS011;68046;53.334;9.538;2024-01-11T00:23:42;33.95;;;13.18;;
78718;SDS011;68046;53.334;9.538;2024-01-11T00:26:07;32.28;;;13.00;;
78718;SDS011;68046;53.334;9.538;2024-01-11T00:28:33;37.50;;;15.15;;
78718;SDS011;68046;53.334;9.538;2024-01-11T00:30:59;38.25;;;15.05;;
78718;SDS011;68046;53.334;9.538;2024-01-11T00:33:25;25.15;;;11.88;;
78718;SDS011;68046;53.334;9.538;2024-01-11T00:35:50;30.60;;;14.40;;
78718;SDS011;68046;53.334;9.538;2024-01-11T00:38:16;37.70;;;16.30;;
78718;SDS011;68046;53.334;9.538;2024-01-11T00:40:41;36.85;;;14.73;;
78718;SDS011;68046;53.334;9.538;2024-01-11T00:43:07;28.65;;;12.38;;
78718;SDS011;68046;53.334;9.538;2024-01-11T00:45:33;29.75;;;11.75;;
78718;SDS011;68046;53.334;9.538;2024-01-11T00:47:59;38.75;;;15.13;;
78718;SDS011;68046;53.334;9.538;2024-01-11T00:50:25;32.17;;;14.63;;
78718;SDS011;68046;53.334;9.538;2024-01-11T00:52:50;37.88;;;15.82;;
78718;SDS011;68046;53.334;9.538;2024-01-11T00:55:16;26.35;;;11.77;;
78718;SDS011;68046;53.334;9.538;2024-01-11T00:57:41;39.95;;;16.48;;
78718;SDS011;68046;53.334;9.538;2024-01-11T01:00:07;36.35;;;14.02;;
78718;SDS011;68046;53.334;9.538;2024-01-11T01:02:35;29.25;;;13.80;;
78718;SDS011;68046;53.334;9.538;2024-01-11T01:05:02;30.20;;;13.73;;
78718;SDS011;68046;53.334;9.538;2024-01-11T01:07:28;32.35;;;14.43;;
78718;SDS011;68046;53.334;9.538;2024-01-11T01:09:53;35.03;;;16.00;;
78718;SDS011;68046;53.334;9.538;2024-01-11T01:12:19;34.45;;;13.07;;
78718;SDS011;68046;53.334;9.538;2024-01-11T01:14:44;37.05;;;16.13;;
78718;SDS011;68046;53.334;9.538;2024-01-11T01:17:09;28.08;;;13.65;;
78718;SDS011;68046;53.334;9.538;2024-01-11T01:19:35;37.58;;;14.55;;
78718;SDS011;68046;53.334;9.538;2024-01-11T01:22:02;36.45;;;14.00;;
78718;SDS011;68046;53.334;9.538;2024-01-11T01:24:28;32.60;;;13.18;;
78718;SDS011;68046;53.334;9.538;2024-01-11T01:26:53;34.92;;;15.82;;
78718;SDS011;68046;53.334;9.538;2024-01-11T01:29:19;36.58;;;15.27;;
78718;SDS011;68046;53.334;9.538;2024-01-11T01:31:44;35.70;;;15.05;;
78718;SDS011;68046;53.334;9.538;2024-01-11T01:34:10;34.83;;;13.10;;
78718;SDS011;68046;53.334;9.538;2024-01-11T01:36:35;25.70;;;11.95;;
78718;SDS011;68046;53.334;9.538;2024-01-11T01:39:02;35.03;;;13.48;;
78718;SDS011;68046;53.334;9.538;2024-01-11T01:41:27;27.25;;;11.25;;
78718;SDS011;68046;53.334;9.538;2024-01-11T01:43:53;24.45;;;10.82;;
78718;SDS011;68046;53.334;9.538;2024-01-11T01:46:19;24.65;;;11.05;;
78718;SDS011;68046;53.334;9.538;2024-01-11T01:48:48;23.00;;;12.25;;
78718;SDS011;68046;53.334;9.538;2024-01-11T01:51:13;28.45;;;12.63;;
78718;SDS011;68046;53.334;9.538;2024-01-11T01:53:39;36.92;;;14.35;;
78718;SDS011;68046;53.334;9.538;2024-01-11T01:56:06;32.25;;;12.88;;
78718;SDS011;68046;53.334;9.538;2024-01-11T01:58:33;31.55;;;12.68;;
78718;SDS011;68046;53.334;9.538;2024-01-11T02:01:00;29.95;;;11.45;;
78718;SDS011;68046;53.334;9.538;2024-01-11T02:03:26;31.85;;;12.90;;
78718;SDS011;68046;53.334;9.538;2024-01-11T02:05:53;33.65;;;12.77;;
78718;SDS011;68046;53.334;9.538;2024-01-11T02:08:19;32.42;;;13.15;;
78718;SDS011;68046;53.334;9.538;2024-01-11T02:10:47;34.75;;;12.95;;
78718;SDS011;68046;53.334;9.538;2024-01-11T02:13:14;38.85;;;12.77;;
78718;SDS011;68046;53.334;9.538;2024-01-11T02:15:40;30.50;;;12.40;;
78718;SDS011;68046;53.334;9.538;2024-01-11T02:18:06;46.50;;;16.73;;
78718;SDS011;68046;53.334;9.538;2024-01-11T02:20:32;34.83;;;14.00;;
78718;SDS011;68046;53.334;9.538;2024-01-11T02:22:58;23.27;;;10.93;;
78718;SDS011;68046;53.334;9.538;2024-01-11T02:25:29;34.90;;;14.80;;
78718;SDS011;68046;53.334;9.538;2024-01-11T02:27:55;27.60;;;10.68;;
78718;SDS011;68046;53.334;9.538;2024-01-11T02:30:20;33.47;;;12.27;;
78718;SDS011;68046;53.334;9.538;2024-01-11T02:32:46;38.60;;;14.20;;
78718;SDS011;68046;53.334;9.538;2024-01-11T02:35:13;26.80;;;11.63;;
78718;SDS011;68046;53.334;9.538;2024-01-11T02:37:40;32.03;;;11.75;;
78718;SDS011;68046;53.334;9.538;2024-01-11T02:40:06;32.83;;;13.43;;
78718;SDS011;68046;53.334;9.538;2024-01-11T02:42:34;27.60;;;12.00;;
78718;SDS011;68046;53.334;9.538;2024-01-11T02:45:00;20.15;;;10.73;;
78718;SDS011;68046;53.334;9.538;2024-01-11T02:47:26;21.45;;;10.52;;
78718;SDS011;68046;53.334;9.538;2024-01-11T02:49:51;32.42;;;11.77;;
78718;SDS011;68046;53.334;9.538;2024-01-11T02:52:17;20.63;;;10.02;;
78718;SDS011;68046;53.334;9.538;2024-01-11T02:54:42;29.05;;;11.98;;
78718;SDS011;68046;53.334;9.538;2024-01-11T02:57:08;28.85;;;10.80;;
78718;SDS011;68046;53.334;9.538;2024-01-11T02:59:34;31.90;;;14.55;;
78718;SDS011;68046;53.334;9.538;2024-01-11T03:02:01;26.63;;;10.13;;
78718;SDS011;68046;53.334;9.538;2024-01-11T03:04:27;34.97;;;13.85;;
78718;SDS011;68046;53.334;9.538;2024-01-11T03:06:52;39.95;;;15.40;;
78718;SDS011;68046;53.334;9.538;2024-01-11T03:09:18;32.28;;;13.07;;
78718;SDS011;68046;53.334;9.538;2024-01-11T03:11:43;31.58;;;12.85;;
78718;SDS011;68046;53.334;9.538;2024-01-11T03:14:09;30.77;;;13.38;;
78718;SDS011;68046;53.334;9.538;2024-01-11T03:16:35;35.13;;;12.23;;
78718;SDS011;68046;53.334;9.538;2024-01-11T03:19:01;29.25;;;12.98;;
78718;SDS011;68046;53.334;9.538;2024-01-11T03:21:26;31.67;;;12.10;;
78718;SDS011;68046;53.334;9.538;2024-01-11T03:23:52;35.13;;;11.57;;
78718;SDS011;68046;53.334;9.538;2024-01-11T03:26:17;24.20;;;11.68;;
78718;SDS011;68046;53.334;9.538;2024-01-11T03:28:43;29.30;;;11.80;;
78718;SDS011;68046;53.334;9.538;2024-01-11T03:31:09;31.80;;;11.60;;
78718;SDS011;68046;53.334;9.538;2024-01-11T03:33:36;35.03;;;12.40;;
78718;SDS011;68046;53.334;9.538;2024-01-11T03:36:06;32.88;;;13.43;;
78718;SDS011;68046;53.334;9.538;2024-01-11T03:38:32;33.03;;;14.30;;
78718;SDS011;68046;53.334;9.538;2024-01-11T03:40:57;36.45;;;13.00;;
78718;SDS011;68046;53.334;9.538;2024-01-11T03:43:23;32.35;;;11.75;;
78718;SDS011;68046;53.334;9.538;2024-01-11T03:45:48;28.13;;;12.35;;
78718;SDS011;68046;53.334;9.538;2024-01-11T03:48:14;27.75;;;10.13;;
78718;SDS011;68046;53.334;9.538;2024-01-11T03:50:40;24.92;;;10.43;;
78718;SDS011;68046;53.334;9.538;2024-01-11T03:53:06;26.83;;;10.40;;
78718;SDS011;68046;53.334;9.538;2024-01-11T03:55:31;31.13;;;11.80;;
78718;SDS011;68046;53.334;9.538;2024-01-11T03:57:57;26.30;;;10.43;;
78718;SDS011;68046;53.334;9.538;2024-01-11T04:00:22;25.17;;;10.82;;
78718;SDS011;68046;53.334;9.538;2024-01-11T04:02:48;24.63;;;9.90;;
78718;SDS011;68046;53.334;9.538;2024-01-11T04:05:13;23.15;;;9.85;;
78718;SDS011;68046;53.334;9.538;2024-01-11T04:07:40;23.95;;;9.93;;
78718;SDS011;68046;53.334;9.538;2024-01-11T04:10:06;28.20;;;11.18;;
78718;SDS011;68046;53.334;9.538;2024-01-11T04:12:32;23.77;;;9.82;;
78718;SDS011;68046;53.334;9.538;2024-01-11T04:14:58;23.17;;;9.60;;
78718;SDS011;68046;53.334;9.538;2024-01-11T04:17:23;22.00;;;9.60;;
78718;SDS011;68046;53.334;9.538;2024-01-11T04:19:49;24.02;;;10.85;;
78718;SDS011;68046;53.334;9.538;2024-01-11T04:22:14;25.98;;;10.43;;
78718;SDS011;68046;53.334;9.538;2024-01-11T04:24:42;23.60;;;10.55;;
78718;SDS011;68046;53.334;9.538;2024-01-11T04:27:08;26.42;;;9.60;;
78718;SDS011;68046;53.334;9.538;2024-01-11T04:29:33;29.42;;;12.38;;
78718;SDS011;68046;53.334;9.538;2024-01-11T04:31:59;23.45;;;10.00;;
78718;SDS011;68046;53.334;9.538;2024-01-11T04:34:25;28.45;;;11.65;;
78718;SDS011;68046;53.334;9.538;2024-01-11T04:36:50;29.48;;;11.25;;
78718;SDS011;68046;53.334;9.538;2024-01-11T04:39:15;24.92;;;10.20;;
78718;SDS011;68046;53.334;9.538;2024-01-11T04:41:42;27.48;;;10.95;;
78718;SDS011;68046;53.334;9.538;2024-01-11T04:44:08;28.00;;;10.40;;
78718;SDS011;68046;53.334;9.538;2024-01-11T04:46:34;36.85;;;11.93;;
78718;SDS011;68046;53.334;9.538;2024-01-11T04:49:00;34.22;;;12.05;;
78718;SDS011;68046;53.334;9.538;2024-01-11T04:51:25;28.83;;;9.77;;
78718;SDS011;68046;53.334;9.538;2024-01-11T04:53:51;29.38;;;11.05;;
78718;SDS011;68046;53.334;9.538;2024-01-11T04:56:17;30.80;;;10.18;;
78718;SDS011;68046;53.334;9.538;2024-01-11T04:58:44;24.90;;;10.18;;
78718;SDS011;68046;53.334;9.538;2024-01-11T05:01:11;31.77;;;12.90;;
78718;SDS011;68046;53.334;9.538;2024-01-11T05:03:37;30.35;;;12.20;;
78718;SDS011;68046;53.334;9.538;2024-01-11T05:06:03;38.28;;;14.30;;
78718;SDS011;68046;53.334;9.538;2024-01-11T05:08:29;32.67;;;11.00;;
78718;SDS011;68046;53.334;9.538;2024-01-11T05:10:55;28.73;;;11.27;;
78718;SDS011;68046;53.334;9.538;2024-01-11T05:13:21;24.92;;;10.77;;
78718;SDS011;68046;53.334;9.538;2024-01-11T05:15:48;46.50;;;13.02;;
78718;SDS011;68046;53.334;9.538;2024-01-11T05:18:14;23.67;;;10.45;;
78718;SDS011;68046;53.334;9.538;2024-01-11T05:20:39;32.83;;;11.85;;
78718;SDS011;68046;53.334;9.538;2024-01-11T05:23:05;36.75;;;12.15;;
78718;SDS011;68046;53.334;9.538;2024-01-11T05:25:31;36.28;;;11.57;;
78718;SDS011;68046;53.334;9.538;2024-01-11T05:27:57;30.80;;;10.05;;
78718;SDS011;68046;53.334;9.538;2024-01-11T05:30:22;29.60;;;13.18;;
78718;SDS011;68046;53.334;9.538;2024-01-11T05:32:49;33.70;;;13.18;;
78718;SDS011;68046;53.334;9.538;2024-01-11T05:35:14;34.00;;;12.25;;
78718;SDS011;68046;53.334;9.538;2024-01-11T05:37:40;34.15;;;11.55;;
78718;SDS011;68046;53.334;9.538;2024-01-11T05:40:06;35.55;;;13.23;;
78718;SDS011;68046;53.334;9.538;2024-01-11T05:42:33;34.20;;;12.20;;
78718;SDS011;68046;53.334;9.538;2024-01-11T05:44:58;33.60;;;12.95;;
78718;SDS011;68046;53.334;9.538;2024-01-11T05:47:24;39.88;;;12.85;;
78718;SDS011;68046;53.334;9.538;2024-01-11T05:49:51;29.33;;;10.70;;
78718;SDS011;68046;53.334;9.538;2024-01-11T05:52:16;39.70;;;12.77;;
78718;SDS011;68046;53.334;9.538;2024-01-11T05:54:42;28.88;;;10.85;;
78718;SDS011;68046;53.334;9.538;2024-01-11T05:57:07;36.47;;;12.52;;
78718;SDS011;68046;53.334;9.538;2024-01-11T05:59:33;29.50;;;11.65;;
78718;SDS011;68046;53.334;9.538;2024-01-11T06:01:58;35.20;;;12.18;;
78718;SDS011;68046;53.334;9.538;2024-01-11T06:04:24;37.25;;;12.85;;
78718;SDS011;68046;53.334;9.538;2024-01-11T06:06:51;25.33;;;10.73;;
78718;SDS011;68046;53.334;9.538;2024-01-11T06:09:16;33.78;;;12.70;;
78718;SDS011;68046;53.334;9.538;2024-01-11T06:11:42;31.70;;;12.40;;
78718;SDS011;68046;53.334;9.538;2024-01-11T06:14:07;27.92;;;11.15;;
78718;SDS011;68046;53.334;9.538;2024-01-11T06:16:33;32.03;;;11.98;;
78718;SDS011;68046;53.334;9.538;2024-01-11T06:18:58;35.85;;;13.80;;
78718;SDS011;68046;53.334;9.538;2024-01-11T06:21:24;33.35;;;14.43;;
78718;SDS011;68046;53.334;9.538;2024-01-11T06:23:51;39.03;;;13.57;;
78718;SDS011;68046;53.334;9.538;2024-01-11T06:26:16;45.40;;;16.27;;
78718;SDS011;68046;53.334;9.538;2024-01-11T06:28:42;32.42;;;14.02;;
78718;SDS011;68046;53.334;9.538;2024-01-11T06:31:09;42.47;;;14.82;;
78718;SDS011;68046;53.334;9.538;2024-01-11T06:33:34;43.50;;;15.13;;
78718;SDS011;68046;53.334;9.538;2024-01-11T06:36:00;40.95;;;12.88;;
78718;SDS011;68046;53.334;9.538;2024-01-11T06:38:25;41.53;;;15.88;;
78718;SDS011;68046;53.334;9.538;2024-01-11T06:40:52;36.72;;;14.10;;
78718;SDS011;68046;53.334;9.538;2024-01-11T06:43:17;34.22;;;13.52;;
78718;SDS011;68046;53.334;9.538;2024-01-11T06:45:43;38.97;;;14.95;;
78718;SDS011;68046;53.334;9.538;2024-01-11T06:48:08;38.20;;;10.25;;
78718;SDS011;68046;53.334;9.538;2024-01-11T06:50:34;28.20;;;12.07;;
78718;SDS011;68046;53.334;9.538;2024-01-11T06:52:59;40.25;;;13.55;;
78718;SDS011;68046;53.334;9.538;2024-01-11T06:55:26;38.33;;;13.30;;
78718;SDS011;68046;53.334;9.538;2024-01-11T06:57:52;35.55;;;12.13;;
78718;SDS011;68046;53.334;9.538;2024-01-11T07:00:18;32.30;;;11.95;;
78718;SDS011;68046;53.334;9.538;2024-01-11T07:02:44;33.42;;;13.68;;
78718;SDS011;68046;53.334;9.538;2024-01-11T07:05:10;29.27;;;10.40;;
78718;SDS011;68046;53.334;9.538;2024-01-11T07:07:35;33.08;;;12.70;;
78718;SDS011;68046;53.334;9.538;2024-01-11T07:10:01;35.60;;;11.88;;
78718;SDS011;68046;53.334;9.538;2024-01-11T07:12:26;29.75;;;10.23;;
78718;SDS011;68046;53.334;9.538;2024-01-11T07:14:53;41.05;;;13.73;;
78718;SDS011;68046;53.334;9.538;2024-01-11T07:17:19;40.40;;;12.60;;
78718;SDS011;68046;53.334;9.538;2024-01-11T07:19:44;32.80;;;12.25;;
78718;SDS011;68046;53.334;9.538;2024-01-11T07:22:10;40.40;;;12.35;;
78718;SDS011;68046;53.334;9.538;2024-01-11T07:24:36;33.05;;;12.30;;
78718;SDS011;68046;53.334;9.538;2024-01-11T07:27:02;38.22;;;12.45;;
78718;SDS011;68046;53.334;9.538;2024-01-11T07:29:28;39.03;;;13.45;;
78718;SDS011;68046;53.334;9.538;2024-01-11T07:31:55;34.78;;;12.23;;
78718;SDS011;68046;53.334;9.538;2024-01-11T07:34:20;34.42;;;12.90;;
78718;SDS011;68046;53.334;9.538;2024-01-11T07:36:46;32.00;;;10.18;;
78718;SDS011;68046;53.334;9.538;2024-01-11T07:39:11;44.05;;;13.63;;
78718;SDS011;68046;53.334;9.538;2024-01-11T07:41:37;31.38;;;10.95;;
78718;SDS011;68046;53.334;9.538;2024-01-11T07:44:06;30.17;;;10.63;;
78718;SDS011;68046;53.334;9.538;2024-01-11T07:46:32;39.28;;;12.95;;
78718;SDS011;68046;53.334;9.538;2024-01-11T07:48:59;38.50;;;12.45;;
78718;SDS011;68046;53.334;9.538;2024-01-11T07:51:24;42.15;;;12.77;;
78718;SDS011;68046;53.334;9.538;2024-01-11T07:53:50;34.67;;;11.40;;
78718;SDS011;68046;53.334;9.538;2024-01-11T07:56:15;39.65;;;15.07;;
78718;SDS011;68046;53.334;9.538;2024-01-11T07:58:41;36.75;;;12.52;;
78718;SDS011;68046;53.334;9.538;2024-01-11T08:01:06;39.47;;;13.75;;
78718;SDS011;68046;53.334;9.538;2024-01-11T08:03:32;41.90;;;14.07;;
78718;SDS011;68046;53.334;9.538;2024-01-11T08:05:59;41.70;;;14.43;;
78718;SDS011;68046;53.334;9.538;2024-01-11T08:08:25;32.65;;;12.07;;
78718;SDS011;68046;53.334;9.538;2024-01-11T08:10:50;53.85;;;15.85;;
78718;SDS011;68046;53.334;9.538;2024-01-11T08:13:16;35.47;;;13.13;;
78718;SDS011;68046;53.334;9.538;2024-01-11T08:15:41;43.05;;;13.38;;
78718;SDS011;68046;53.334;9.538;2024-01-11T08:18:07;50.63;;;15.00;;
78718;SDS011;68046;53.334;9.538;2024-01-11T08:20:32;44.55;;;13.60;;
78718;SDS011;68046;53.334;9.538;2024-01-11T08:22:59;35.72;;;12.10;;
78718;SDS011;68046;53.334;9.538;2024-01-11T08:25:25;39.10;;;13.80;;
78718;SDS011;68046;53.334;9.538;2024-01-11T08:27:50;46.38;;;13.45;;
78718;SDS011;68046;53.334;9.538;2024-01-11T08:30:16;31.08;;;12.38;;
78718;SDS011;68046;53.334;9.538;2024-01-11T08:32:41;38.03;;;12.32;;
78718;SDS011;68046;53.334;9.538;2024-01-11T08:35:08;34.33;;;13.02;;
78718;SDS011;68046;53.334;9.538;2024-01-11T08:37:34;35.13;;;14.60;;
78718;SDS011;68046;53.334;9.538;2024-01-11T08:40:00;31.95;;;13.52;;
78718;SDS011;68046;53.334;9.538;2024-01-11T08:42:26;44.42;;;14.43;;
78718;SDS011;68046;53.334;9.538;2024-01-11T08:44:52;45.60;;;13.43;;
78718;SDS011;68046;53.334;9.538;2024-01-11T08:47:17;36.15;;;12.52;;
78718;SDS011;68046;53.334;9.538;2024-01-11T08:49:43;39.22;;;11.30;;
78718;SDS011;68046;53.334;9.538;2024-01-11T08:52:08;41.90;;;13.10;;
78718;SDS011;68046;53.334;9.538;2024-01-11T08:54:34;43.97;;;13.40;;
78718;SDS011;68046;53.334;9.538;2024-01-11T08:57:01;35.05;;;13.23;;
78718;SDS011;68046;53.334;9.538;2024-01-11T08:59:26;37.10;;;12.38;;
78718;SDS011;68046;53.334;9.538;2024-01-11T09:01:52;33.53;;;11.27;;
78718;SDS011;68046;53.334;9.538;2024-01-11T09:04:18;30.55;;;12.30;;
78718;SDS011;68046;53.334;9.538;2024-01-11T09:06:43;40.20;;;13.43;;
78718;SDS011;68046;53.334;9.538;2024-01-11T09:09:09;39.25;;;13.52;;
78718;SDS011;68046;53.334;9.538;2024-01-11T09:11:35;40.92;;;13.05;;
78718;SDS011;68046;53.334;9.538;2024-01-11T09:14:02;34.22;;;14.85;;
78718;SDS011;68046;53.334;9.538;2024-01-11T09:16:27;52.65;;;14.80;;
78718;SDS011;68046;53.334;9.538;2024-01-11T09:18:53;34.40;;;13.43;;
78718;SDS011;68046;53.334;9.538;2024-01-11T09:21:19;51.13;;;16.13;;
78718;SDS011;68046;53.334;9.538;2024-01-11T09:23:44;39.78;;;14.43;;
78718;SDS011;68046;53.334;9.538;2024-01-11T09:26:10;35.03;;;11.63;;
78718;SDS011;68046;53.334;9.538;2024-01-11T09:28:35;43.65;;;14.98;;
78718;SDS011;68046;53.334;9.538;2024-01-11T09:31:02;42.42;;;14.25;;
78718;SDS011;68046;53.334;9.538;2024-01-11T09:33:28;36.88;;;12.15;;
78718;SDS011;68046;53.334;9.538;2024-01-11T09:35:53;40.85;;;13.60;;
78718;SDS011;68046;53.334;9.538;2024-01-11T09:38:19;33.72;;;12.57;;
78718;SDS011;68046;53.334;9.538;2024-01-11T09:40:44;42.15;;;13.23;;
78718;SDS011;68046;53.334;9.538;2024-01-11T09:43:10;37.58;;;13.93;;
78718;SDS011;68046;53.334;9.538;2024-01-11T09:45:36;48.33;;;14.10;;
78718;SDS011;68046;53.334;9.538;2024-01-11T09:48:04;43.30;;;12.15;;
78718;SDS011;68046;53.334;9.538;2024-01-11T09:50:31;42.72;;;14.18;;
78718;SDS011;68046;53.334;9.538;2024-01-11T09:52:57;43.38;;;12.60;;
78718;SDS011;68046;53.334;9.538;2024-01-11T09:55:26;38.58;;;14.73;;
78718;SDS011;68046;53.334;9.538;2024-01-11T09:57:52;37.80;;;13.30;;
78718;SDS011;68046;53.334;9.538;2024-01-11T10:00:21;44.80;;;12.98;;
78718;SDS011;68046;53.334;9.538;2024-01-11T10:02:48;41.17;;;13.52;;
78718;SDS011;68046;53.334;9.538;2024-01-11T10:05:15;37.70;;;11.82;;
78718;SDS011;68046;53.334;9.538;2024-01-11T10:07:42;39.40;;;13.65;;
78718;SDS011;68046;53.334;9.538;2024-01-11T10:10:08;36.17;;;12.07;;
78718;SDS011;68046;53.334;9.538;2024-01-11T10:12:34;46.17;;;14.52;;
78718;SDS011;68046;53.334;9.538;2024-01-11T10:15:04;35.08;;;13.07;;
78718;SDS011;68046;53.334;9.538;2024-01-11T10:17:30;35.47;;;12.77;;
78718;SDS011;68046;53.334;9.538;2024-01-11T10:19:55;40.42;;;13.32;;
78718;SDS011;68046;53.334;9.538;2024-01-11T10:22:22;47.95;;;14.88;;
78718;SDS011;68046;53.334;9.538;2024-01-11T10:24:48;34.60;;;13.23;;
78718;SDS011;68046;53.334;9.538;2024-01-11T10:27:13;36.40;;;11.75;;
78718;SDS011;68046;53.334;9.538;2024-01-11T10:29:39;46.17;;;13.77;;
78718;SDS011;68046;53.334;9.538;2024-01-11T10:32:04;40.70;;;13.80;;
78718;SDS011;68046;53.334;9.538;2024-01-11T10:34:30;43.00;;;14.65;;
78718;SDS011;68046;53.334;9.538;2024-01-11T10:36:56;41.47;;;14.38;;
78718;SDS011;68046;53.334;9.538;2024-01-11T10:39:24;32.75;;;11.50;;
78718;SDS011;68046;53.334;9.538;2024-01-11T10:41:51;38.88;;;13.88;;
78718;SDS011;68046;53.334;9.538;2024-01-11T10:44:18;41.55;;;12.48;;
78718;SDS011;68046;53.334;9.538;2024-01-11T10:46:45;37.78;;;11.45;;
78718;SDS011;68046;53.334;9.538;2024-01-11T10:49:11;39.67;;;13.13;;
78718;SDS011;68046;53.334;9.538;2024-01-11T10:51:40;43.75;;;13.00;;
78718;SDS011;68046;53.334;9.538;2024-01-11T10:54:09;36.65;;;12.30;;
78718;SDS011;68046;53.334;9.538;2024-01-11T10:56:36;43.38;;;12.35;;
78718;SDS011;68046;53.334;9.538;2024-01-11T10:59:02;41.35;;;12.90;;
78718;SDS011;68046;53.334;9.538;2024-01-11T11:01:28;45.05;;;13.40;;
78718;SDS011;68046;53.334;9.538;2024-01-11T11:03:54;46.15;;;13.65;;
78718;SDS011;68046;53.334;9.538;2024-01-11T11:06:20;39.65;;;14.23;;
78718;SDS011;68046;53.334;9.538;2024-01-11T11:08:47;45.72;;;15.45;;
78718;SDS011;68046;53.334;9.538;2024-01-11T11:11:15;47.35;;;15.00;;
78718;SDS011;68046;53.334;9.538;2024-01-11T11:13:44;47.47;;;13.38;;
78718;SDS011;68046;53.334;9.538;2024-01-11T11:16:12;45.70;;;14.85;;
78718;SDS011;68046;53.334;9.538;2024-01-11T11:18:39;42.63;;;13.13;;
78718;SDS011;68046;53.334;9.538;2024-01-11T11:21:06;46.13;;;13.90;;
78718;SDS011;68046;53.334;9.538;2024-01-11T11:23:34;43.28;;;14.52;;
78718;SDS011;68046;53.334;9.538;2024-01-11T11:25:59;43.58;;;15.50;;
78718;SDS011;68046;53.334;9.538;2024-01-11T11:28:25;49.40;;;15.30;;
78718;SDS011;68046;53.334;9.538;2024-01-11T11:30:52;53.95;;;14.60;;
78718;SDS011;68046;53.334;9.538;2024-01-11T11:33:19;48.85;;;16.42;;
78718;SDS011;68046;53.334;9.538;2024-01-11T11:35:45;41.10;;;13.52;;
78718;SDS011;68046;53.334;9.538;2024-01-11T11:38:16;50.03;;;14.85;;
78718;SDS011;68046;53.334;9.538;2024-01-11T11:40:43;41.75;;;14.88;;
78718;SDS011;68046;53.334;9.538;2024-01-11T11:43:11;42.05;;;14.38;;
78718;SDS011;68046;53.334;9.538;2024-01-11T11:45:37;50.80;;;14.15;;
78718;SDS011;68046;53.334;9.538;2024-01-11T11:48:06;40.92;;;13.23;;
78718;SDS011;68046;53.334;9.538;2024-01-11T11:51:10;46.47;;;14.60;;
78718;SDS011;68046;53.334;9.538;2024-01-11T11:53:37;46.53;;;13.77;;
78718;SDS011;68046;53.334;9.538;2024-01-11T11:56:05;49.83;;;15.02;;
78718;SDS011;68046;53.334;9.538;2024-01-11T11:58:31;37.30;;;13.00;;
78718;SDS011;68046;53.334;9.538;2024-01-11T12:00:59;41.15;;;13.82;;
78718;SDS011;68046;53.334;9.538;2024-01-11T12:03:28;44.22;;;12.38;;
78718;SDS011;68046;53.334;9.538;2024-01-11T12:05:55;48.80;;;13.27;;
78718;SDS011;68046;53.334;9.538;2024-01-11T12:08:20;50.45;;;14.40;;
78718;SDS011;68046;53.334;9.538;2024-01-11T12:10:46;44.28;;;14.30;;
78718;SDS011;68046;53.334;9.538;2024-01-11T12:13:12;37.72;;;14.38;;
78718;SDS011;68046;53.334;9.538;2024-01-11T12:15:37;35.15;;;12.38;;
78718;SDS011;68046;53.334;9.538;2024-01-11T12:18:03;43.70;;;15.52;;
78718;SDS011;68046;53.334;9.538;2024-01-11T12:20:30;50.53;;;16.42;;
78718;SDS011;68046;53.334;9.538;2024-01-11T12:22:56;37.50;;;12.73;;
78718;SDS011;68046;53.334;9.538;2024-01-11T12:25:21;49.15;;;14.80;;
78718;SDS011;68046;53.334;9.538;2024-01-11T12:27:47;44.22;;;14.23;;
78718;SDS011;68046;53.334;9.538;2024-01-11T12:30:13;44.40;;;13.75;;
78718;SDS011;68046;53.334;9.538;2024-01-11T12:32:38;44.50;;;15.32;;
78718;SDS011;68046;53.334;9.538;2024-01-11T12:35:04;45.38;;;15.52;;
78718;SDS011;68046;53.334;9.538;2024-01-11T12:37:32;53.90;;;15.27;;
78718;SDS011;68046;53.334;9.538;2024-01-11T12:39:57;48.50;;;14.32;;
78718;SDS011;68046;53.334;9.538;2024-01-11T12:42:23;56.20;;;17.13;;
78718;SDS011;68046;53.334;9.538;2024-01-11T12:44:48;50.60;;;15.65;;
78718;SDS011;68046;53.334;9.538;2024-01-11T12:47:14;56.90;;;17.40;;
78718;SDS011;68046;53.334;9.538;2024-01-11T12:49:42;48.95;;;16.63;;
78718;SDS011;68046;53.334;9.538;2024-01-11T12:52:14;52.63;;;15.77;;
78718;SDS011;68046;53.334;9.538;2024-01-11T12:54:42;44.65;;;15.50;;
78718;SDS011;68046;53.334;9.538;2024-01-11T12:57:10;49.05;;;16.02;;
78718;SDS011;68046;53.334;9.538;2024-01-11T12:59:36;58.72;;;18.13;;
78718;SDS011;68046;53.334;9.538;2024-01-11T13:02:02;49.53;;;15.13;;
78718;SDS011;68046;53.334;9.538;2024-01-11T13:04:27;51.47;;;16.50;;
78718;SDS011;68046;53.334;9.538;2024-01-11T13:06:53;48.63;;;16.23;;
78718;SDS011;68046;53.334;9.538;2024-01-11T13:09:19;49.78;;;15.80;;
78718;SDS011;68046;53.334;9.538;2024-01-11T13:11:45;51.33;;;15.65;;
78718;SDS011;68046;53.334;9.538;2024-01-11T13:14:11;46.65;;;14.40;;
78718;SDS011;68046;53.334;9.538;2024-01-11T13:16:36;46.70;;;13.07;;
78718;SDS011;68046;53.334;9.538;2024-01-11T13:19:02;42.97;;;13.18;;
78718;SDS011;68046;53.334;9.538;2024-01-11T13:21:27;56.88;;;15.27;;
78718;SDS011;68046;53.334;9.538;2024-01-11T13:23:53;49.75;;;14.00;;
78718;SDS011;68046;53.334;9.538;2024-01-11T13:26:19;51.97;;;14.80;;
78718;SDS011;68046;53.334;9.538;2024-01-11T13:28:46;40.60;;;12.40;;
78718;SDS011;68046;53.334;9.538;2024-01-11T13:31:11;48.95;;;14.57;;
78718;SDS011;68046;53.334;9.538;2024-01-11T13:33:37;34.38;;;12.07;;
78718;SDS011;68046;53.334;9.538;2024-01-11T13:36:03;55.55;;;15.65;;
78718;SDS011;68046;53.334;9.538;2024-01-11T13:38:29;57.22;;;15.90;;
78718;SDS011;68046;53.334;9.538;2024-01-11T13:40:55;57.90;;;15.25;;
78718;SDS011;68046;53.334;9.538;2024-01-11T13:43:20;51.53;;;13.93;;
78718;SDS011;68046;53.334;9.538;2024-01-11T13:45:48;39.35;;;12.68;;
78718;SDS011;68046;53.334;9.538;2024-01-11T13:48:14;39.72;;;14.70;;
78718;SDS011;68046;53.334;9.538;2024-01-11T13:50:39;44.35;;;12.60;;
78718;SDS011;68046;53.334;9.538;2024-01-11T13:53:05;41.65;;;12.77;;
78718;SDS011;68046;53.334;9.538;2024-01-11T13:55:30;46.17;;;14.82;;
78718;SDS011;68046;53.334;9.538;2024-01-11T13:57:56;48.00;;;14.02;;
78718;SDS011;68046;53.334;9.538;2024-01-11T14:00:21;52.63;;;14.98;;
78718;SDS011;68046;53.334;9.538;2024-01-11T14:02:48;53.80;;;15.45;;
78718;SDS011;68046;53.334;9.538;2024-01-11T14:05:14;42.90;;;12.10;;
78718;SDS011;68046;53.334;9.538;2024-01-11T14:07:40;47.67;;;14.82;;
78718;SDS011;68046;53.334;9.538;2024-01-11T14:10:07;41.38;;;13.98;;
78718;SDS011;68046;53.334;9.538;2024-01-11T14:12:33;51.97;;;14.27;;
78718;SDS011;68046;53.334;9.538;2024-01-11T14:14:58;51.92;;;15.98;;